createdAt,value
2018-08-31T00:01:48.684Z,19.70
2018-08-31T00:06:47.359Z,19.60
2018-08-31T00:09:42.329Z,19.50
2018-08-31T00:12:37.801Z,19.30
2018-08-31T00:15:08.712Z,19.30
2018-08-31T00:17:41.313Z,19.30
2018-08-31T00:20:13.276Z,19.30
2018-08-31T00:22:43.826Z,19.30
2018-08-31T00:26:30.839Z,19.30
2018-08-31T00:29:51.130Z,19.20
2018-08-31T00:34:45.450Z,19.10
2018-08-31T00:37:34.355Z,19.10
2018-08-31T00:40:48.064Z,19.20
2018-08-31T00:43:37.724Z,19.20
2018-08-31T00:46:08.046Z,19.20
2018-08-31T00:48:38.516Z,19.20
2018-08-31T00:51:09.071Z,19.10
2018-08-31T00:53:39.514Z,19.10
2018-08-31T00:56:09.999Z,19.10
2018-08-31T00:58:40.567Z,19.10
2018-08-31T01:01:11.000Z,19.20
2018-08-31T01:03:41.575Z,19.30
2018-08-31T01:06:12.093Z,19.30
2018-08-31T01:08:42.553Z,19.40
2018-08-31T01:11:13.500Z,19.20
2018-08-31T01:13:43.924Z,19.20
2018-08-31T01:16:14.353Z,19.10
2018-08-31T01:18:44.758Z,19.10
2018-08-31T01:21:16.041Z,19.00
2018-08-31T01:23:47.009Z,19.00
2018-08-31T01:26:17.533Z,19.00
2018-08-31T01:28:48.114Z,19.00
2018-08-31T01:31:18.578Z,19.00
2018-08-31T01:33:48.965Z,19.00
2018-08-31T01:36:19.210Z,19.00
2018-08-31T01:38:49.563Z,19.00
2018-08-31T01:41:20.019Z,19.00
2018-08-31T01:43:50.575Z,19.00
2018-08-31T01:46:21.122Z,19.00
2018-08-31T01:48:51.655Z,18.90
2018-08-31T01:51:22.488Z,18.80
2018-08-31T01:53:53.388Z,18.80
2018-08-31T01:56:25.106Z,18.80
2018-08-31T01:58:55.554Z,18.80
2018-08-31T02:01:26.256Z,18.90
2018-08-31T02:03:59.905Z,19.00
2018-08-31T02:06:30.369Z,19.00
2018-08-31T02:09:05.753Z,19.10
2018-08-31T02:11:36.382Z,19.10
2018-08-31T02:14:07.479Z,19.10
2018-08-31T02:16:38.354Z,19.00
2018-08-31T02:19:08.810Z,19.00
2018-08-31T02:21:39.498Z,19.00
2018-08-31T02:24:09.978Z,19.00
2018-08-31T02:26:40.475Z,19.00
2018-08-31T02:29:11.034Z,19.00
2018-08-31T02:31:41.701Z,19.00
2018-08-31T02:34:12.800Z,19.00
2018-08-31T02:36:43.139Z,19.10
2018-08-31T02:39:13.710Z,19.00
2018-08-31T02:41:44.121Z,18.90
2018-08-31T02:44:14.623Z,18.80
2018-08-31T02:46:44.946Z,18.80
2018-08-31T02:49:15.219Z,18.80
2018-08-31T02:51:45.916Z,18.80
2018-08-31T02:54:16.389Z,18.80
2018-08-31T02:56:46.839Z,18.80
2018-08-31T02:59:17.367Z,18.90
2018-08-31T03:01:48.711Z,19.00
2018-08-31T03:04:19.750Z,19.00
2018-08-31T03:06:50.317Z,19.10
2018-08-31T03:09:20.804Z,19.20
2018-08-31T03:11:51.276Z,19.30
2018-08-31T03:14:21.874Z,19.30
2018-08-31T03:16:52.359Z,19.20
2018-08-31T03:19:22.820Z,19.00
2018-08-31T03:21:53.395Z,18.80
2018-08-31T03:24:23.880Z,18.90
2018-08-31T03:26:54.224Z,19.00
2018-08-31T03:29:24.624Z,19.00
2018-08-31T03:31:55.110Z,19.10
2018-08-31T03:34:25.615Z,19.10
2018-08-31T03:36:56.077Z,19.20
2018-08-31T03:39:26.447Z,19.30
2018-08-31T03:41:56.686Z,19.30
2018-08-31T03:44:27.281Z,19.40
2018-08-31T03:46:57.812Z,19.40
2018-08-31T03:49:28.521Z,19.40
2018-08-31T03:51:59.155Z,19.50
2018-08-31T03:54:30.463Z,19.60
2018-08-31T03:57:01.717Z,19.70
2018-08-31T03:59:32.254Z,19.70
2018-08-31T04:02:03.098Z,19.80
2018-08-31T04:04:33.434Z,19.80
2018-08-31T04:07:03.961Z,19.80
2018-08-31T04:09:34.399Z,19.90
2018-08-31T04:12:05.210Z,20.00
2018-08-31T04:14:35.733Z,20.10
2018-08-31T04:17:06.179Z,20.10
2018-08-31T04:19:36.592Z,20.10
2018-08-31T04:22:07.163Z,20.10
2018-08-31T04:24:37.679Z,20.10
2018-08-31T04:27:08.235Z,20.10
2018-08-31T04:29:38.833Z,20.20
2018-08-31T04:32:09.335Z,20.10
2018-08-31T04:34:39.941Z,20.20
2018-08-31T04:37:10.609Z,20.20
2018-08-31T04:39:41.316Z,20.20
2018-08-31T04:42:11.796Z,20.20
2018-08-31T04:44:42.353Z,20.20
2018-08-31T04:47:13.028Z,20.30
2018-08-31T04:49:43.518Z,20.30
2018-08-31T04:52:14.091Z,20.20
2018-08-31T04:54:44.625Z,20.20
2018-08-31T04:57:15.067Z,20.30
2018-08-31T04:59:45.605Z,20.30
2018-08-31T05:02:16.596Z,20.30
2018-08-31T05:04:47.924Z,20.40
2018-08-31T05:07:19.839Z,20.40
2018-08-31T05:09:50.386Z,20.50
2018-08-31T05:12:21.052Z,20.50
2018-08-31T05:14:51.531Z,20.50
2018-08-31T05:17:21.915Z,20.50
2018-08-31T05:19:52.464Z,20.60
2018-08-31T05:22:23.183Z,20.50
2018-08-31T05:24:53.693Z,20.60
2018-08-31T05:27:24.141Z,20.70
2018-08-31T05:29:54.677Z,20.70
2018-08-31T05:32:25.211Z,20.80
2018-08-31T05:34:55.617Z,20.80
2018-08-31T05:37:26.040Z,20.80
2018-08-31T05:39:56.565Z,20.70
2018-08-31T05:42:27.122Z,20.80
2018-08-31T05:44:57.916Z,20.90
2018-08-31T05:47:28.694Z,20.90
2018-08-31T05:49:59.195Z,21.00
2018-08-31T05:52:30.011Z,21.00
2018-08-31T05:55:00.490Z,21.00
2018-08-31T05:57:31.164Z,21.20
2018-08-31T06:00:01.686Z,21.40
2018-08-31T06:02:32.204Z,21.40
2018-08-31T06:05:02.698Z,21.50
2018-08-31T06:07:33.474Z,21.60
2018-08-31T06:10:05.271Z,21.50
2018-08-31T06:12:35.836Z,21.50
2018-08-31T06:15:06.834Z,21.50
2018-08-31T06:17:37.805Z,21.60
2018-08-31T06:20:09.954Z,21.80
2018-08-31T06:22:40.461Z,21.80
2018-08-31T06:25:11.280Z,22.00
2018-08-31T06:27:41.986Z,21.90
2018-08-31T06:30:12.450Z,22.00
2018-08-31T06:32:42.918Z,22.10
2018-08-31T06:35:14.064Z,22.30
2018-08-31T06:37:44.550Z,22.50
2018-08-31T06:40:15.226Z,22.90
2018-08-31T06:42:45.905Z,23.30
2018-08-31T06:45:16.629Z,23.80
2018-08-31T06:47:48.237Z,24.30
2018-08-31T06:50:18.662Z,24.80
2018-08-31T06:52:49.267Z,24.50
2018-08-31T06:55:21.379Z,24.30
2018-08-31T06:57:52.243Z,24.00
2018-08-31T07:00:23.072Z,23.90
2018-08-31T07:02:56.092Z,23.80
2018-08-31T07:05:26.673Z,24.00
2018-08-31T07:07:57.475Z,23.70
2018-08-31T07:10:28.254Z,23.60
2018-08-31T07:12:58.944Z,23.60
2018-08-31T07:15:29.609Z,23.10
2018-08-31T07:18:00.570Z,23.00
2018-08-31T07:20:31.911Z,22.80
2018-08-31T07:23:02.581Z,23.20
2018-08-31T07:25:33.327Z,23.30
2018-08-31T07:28:03.851Z,23.30
2018-08-31T07:30:35.022Z,23.50
2018-08-31T07:33:05.767Z,23.60
2018-08-31T07:35:37.642Z,23.50
2018-08-31T07:38:08.281Z,23.90
2018-08-31T07:40:39.015Z,23.70
2018-08-31T07:43:09.563Z,24.20
2018-08-31T07:45:40.190Z,24.60
2018-08-31T07:48:10.818Z,24.60
2018-08-31T07:50:41.360Z,25.10
2018-08-31T07:53:12.104Z,25.40
2018-08-31T07:55:42.866Z,25.70
2018-08-31T07:58:13.545Z,26.70
2018-08-31T08:00:44.645Z,27.50
2018-08-31T08:03:15.066Z,27.90
2018-08-31T08:05:46.490Z,27.90
2018-08-31T08:08:17.196Z,28.40
2018-08-31T08:10:49.935Z,28.50
2018-08-31T08:13:20.836Z,28.40
2018-08-31T08:15:52.623Z,28.30
2018-08-31T08:18:23.288Z,28.10
2018-08-31T08:20:54.051Z,27.40
2018-08-31T08:23:24.865Z,27.70
2018-08-31T08:25:56.729Z,27.90
2018-08-31T08:28:27.344Z,28.50
2018-08-31T08:30:58.298Z,27.20
2018-08-31T08:33:29.122Z,27.80
2018-08-31T08:35:59.919Z,28.30
2018-08-31T08:38:30.905Z,28.90
2018-08-31T08:41:01.735Z,28.30
2018-08-31T08:43:32.515Z,27.40
2018-08-31T08:46:04.817Z,27.40
2018-08-31T08:48:35.765Z,27.10
2018-08-31T08:51:06.701Z,27.10
2018-08-31T08:53:37.362Z,27.20
2018-08-31T08:56:08.575Z,27.70
2018-08-31T08:58:39.587Z,27.10
2018-08-31T09:01:10.364Z,27.20
2018-08-31T09:03:41.130Z,27.10
2018-08-31T09:06:12.824Z,27.70
2018-08-31T09:08:44.215Z,28.60
2018-08-31T09:11:14.865Z,29.30
2018-08-31T09:13:45.994Z,29.60
2018-08-31T09:16:16.865Z,29.90
2018-08-31T09:18:47.446Z,30.30
2018-08-31T09:21:17.911Z,30.40
2018-08-31T09:23:48.699Z,30.70
2018-08-31T09:26:19.249Z,31.10
2018-08-31T09:28:49.904Z,30.50
2018-08-31T09:31:20.857Z,30.30
2018-08-31T09:33:51.591Z,30.70
2018-08-31T09:36:22.010Z,30.10
2018-08-31T09:38:52.573Z,29.50
2018-08-31T09:41:23.296Z,29.40
2018-08-31T09:43:54.318Z,29.50
2018-08-31T09:46:25.752Z,29.60
2018-08-31T09:48:57.445Z,30.10
2018-08-31T09:51:28.734Z,30.00
2018-08-31T09:53:59.734Z,30.50
2018-08-31T09:56:30.385Z,30.70
2018-08-31T09:59:01.335Z,30.30
2018-08-31T10:01:36.905Z,29.80
2018-08-31T10:04:08.050Z,30.00
2018-08-31T10:06:39.240Z,30.00
2018-08-31T10:09:11.136Z,30.30
2018-08-31T10:11:41.923Z,30.30
2018-08-31T10:14:12.527Z,30.60
2018-08-31T10:16:43.283Z,30.70
2018-08-31T10:19:14.707Z,30.50
2018-08-31T10:21:46.001Z,30.30
2018-08-31T10:24:16.486Z,30.40
2018-08-31T10:26:47.223Z,30.20
2018-08-31T10:29:17.848Z,29.70
2018-08-31T10:31:48.385Z,29.00
2018-08-31T10:34:19.035Z,28.50
2018-08-31T10:36:50.086Z,28.50
2018-08-31T10:39:20.588Z,28.30
2018-08-31T10:41:51.294Z,28.20
2018-08-31T10:44:21.954Z,27.70
2018-08-31T10:46:52.666Z,27.70
2018-08-31T10:49:23.144Z,28.00
2018-08-31T10:51:54.597Z,28.90
2018-08-31T10:54:25.257Z,30.30
2018-08-31T10:56:55.925Z,31.00
2018-08-31T10:59:27.656Z,30.90
2018-08-31T11:01:58.245Z,29.50
2018-08-31T11:04:28.908Z,30.20
2018-08-31T11:06:59.455Z,30.60
2018-08-31T11:09:30.113Z,30.10
2018-08-31T11:12:00.779Z,30.50
2018-08-31T11:14:31.415Z,30.10
2018-08-31T11:17:01.965Z,30.70
2018-08-31T11:19:33.432Z,30.80
2018-08-31T11:22:04.159Z,30.30
2018-08-31T11:24:35.841Z,29.50
2018-08-31T11:27:06.398Z,29.60
2018-08-31T11:29:37.102Z,30.30
2018-08-31T11:32:09.084Z,30.70
2018-08-31T11:34:41.115Z,29.20
2018-08-31T11:37:12.760Z,28.90
2018-08-31T11:39:43.289Z,28.70
2018-08-31T11:42:13.712Z,28.80
2018-08-31T11:44:44.176Z,29.00
2018-08-31T11:47:15.036Z,29.20
2018-08-31T11:49:45.631Z,29.20
2018-08-31T11:52:16.996Z,29.70
2018-08-31T11:54:47.859Z,28.60
2018-08-31T11:57:19.219Z,28.70
2018-08-31T11:59:50.352Z,28.80
2018-08-31T12:02:21.372Z,28.80
2018-08-31T12:04:51.968Z,28.90
2018-08-31T12:07:22.608Z,29.00
2018-08-31T12:09:53.133Z,28.20
2018-08-31T12:12:23.942Z,28.50
2018-08-31T12:14:54.901Z,27.80
2018-08-31T12:17:25.670Z,27.70
2018-08-31T12:19:56.678Z,27.70
2018-08-31T12:22:27.579Z,27.30
2018-08-31T12:24:58.565Z,27.70
2018-08-31T12:27:29.765Z,28.10
2018-08-31T12:30:00.807Z,27.80
2018-08-31T12:32:32.083Z,27.60
2018-08-31T12:35:04.056Z,27.40
2018-08-31T12:37:40.817Z,27.30
2018-08-31T12:40:12.757Z,27.70
2018-08-31T12:42:43.707Z,27.80
2018-08-31T12:45:14.498Z,27.80
2018-08-31T12:47:47.264Z,27.80
2018-08-31T12:50:18.223Z,27.50
2018-08-31T12:52:48.965Z,27.60
2018-08-31T12:55:20.240Z,27.70
2018-08-31T12:57:50.882Z,28.00
2018-08-31T13:00:21.885Z,28.00
2018-08-31T13:02:52.682Z,28.70
2018-08-31T13:05:23.351Z,28.70
2018-08-31T13:07:54.043Z,28.60
2018-08-31T13:10:24.811Z,27.90
2018-08-31T13:12:58.029Z,28.00
2018-08-31T13:15:31.071Z,28.40
2018-08-31T13:18:01.891Z,28.50
2018-08-31T13:20:34.174Z,29.30
2018-08-31T13:23:05.601Z,28.70
2018-08-31T13:25:36.242Z,28.50
2018-08-31T13:28:06.960Z,28.20
2018-08-31T13:30:37.608Z,27.70
2018-08-31T13:33:09.022Z,27.50
2018-08-31T13:35:39.797Z,27.80
2018-08-31T13:38:10.688Z,27.90
2018-08-31T13:40:41.453Z,27.10
2018-08-31T13:43:13.235Z,27.10
2018-08-31T13:45:44.296Z,27.50
2018-08-31T13:48:15.255Z,28.20
2018-08-31T13:50:46.274Z,28.40
2018-08-31T13:53:17.285Z,28.10
2018-08-31T13:55:48.047Z,27.80
2018-08-31T13:58:18.830Z,28.40
2018-08-31T14:00:49.624Z,29.30
2018-08-31T14:03:20.441Z,29.10
2018-08-31T14:05:51.284Z,28.90
2018-08-31T14:08:22.064Z,28.50
2018-08-31T14:10:52.892Z,29.20
2018-08-31T14:13:24.160Z,29.00
2018-08-31T14:15:55.402Z,29.20
2018-08-31T14:18:28.324Z,28.50
2018-08-31T14:20:59.393Z,28.10
2018-08-31T14:23:30.238Z,28.10
2018-08-31T14:26:02.132Z,28.10
2018-08-31T14:28:33.296Z,27.80
2018-08-31T14:31:04.279Z,27.60
2018-08-31T14:34:22.809Z,27.30
2018-08-31T14:36:54.019Z,27.60
2018-08-31T14:39:28.139Z,27.00
2018-08-31T14:41:59.003Z,26.60
2018-08-31T14:44:30.127Z,26.70
2018-08-31T14:47:00.949Z,26.60
2018-08-31T14:49:33.970Z,26.60
2018-08-31T14:52:04.608Z,26.90
2018-08-31T14:54:36.385Z,26.60
2018-08-31T14:57:07.166Z,26.10
2018-08-31T14:59:37.921Z,26.20
2018-08-31T15:02:11.741Z,26.00
2018-08-31T15:04:44.241Z,26.10
2018-08-31T15:07:17.058Z,26.00
2018-08-31T15:09:50.478Z,26.10
2018-08-31T15:12:24.901Z,26.60
2018-08-31T15:14:57.000Z,26.80
2018-08-31T15:17:31.555Z,26.90
2018-08-31T15:20:03.487Z,26.60
2018-08-31T15:22:37.296Z,26.10
2018-08-31T15:25:10.053Z,25.90
2018-08-31T15:27:43.092Z,26.10
2018-08-31T15:30:21.263Z,25.80
2018-08-31T15:33:01.412Z,25.70
2018-08-31T15:35:34.190Z,25.90
2018-08-31T15:38:07.292Z,26.10
2018-08-31T15:40:40.522Z,25.90
2018-08-31T15:43:12.670Z,25.50
2018-08-31T15:45:45.873Z,25.30
2018-08-31T15:48:17.926Z,25.40
2018-08-31T15:50:49.623Z,25.80
2018-08-31T15:53:24.810Z,25.80
2018-08-31T15:55:56.547Z,26.00
2018-08-31T15:58:27.525Z,26.10
2018-08-31T16:00:59.585Z,26.20
2018-08-31T16:03:30.877Z,26.10
2018-08-31T16:06:01.941Z,25.90
2018-08-31T16:08:33.328Z,25.80
2018-08-31T16:11:03.846Z,25.80
2018-08-31T16:13:34.743Z,25.60
2018-08-31T16:16:05.519Z,25.50
2018-08-31T16:18:36.212Z,25.30
2018-08-31T16:21:07.800Z,25.40
2018-08-31T16:23:38.820Z,25.50
2018-08-31T16:26:09.398Z,25.40
2018-08-31T16:28:40.413Z,25.20
2018-08-31T16:31:11.396Z,25.20
2018-08-31T16:33:43.625Z,25.30
2018-08-31T16:36:14.212Z,25.20
2018-08-31T16:38:44.820Z,25.30
2018-08-31T16:41:15.864Z,24.90
2018-08-31T16:43:46.490Z,24.90
2018-08-31T16:46:17.030Z,24.70
2018-08-31T16:48:47.977Z,24.50
2018-08-31T16:51:19.434Z,24.60
2018-08-31T16:53:50.628Z,24.70
2018-08-31T16:56:22.197Z,24.80
2018-08-31T16:58:54.154Z,24.60
2018-08-31T17:01:24.881Z,24.60
2018-08-31T17:03:56.372Z,24.80
2018-08-31T17:06:27.310Z,25.00
2018-08-31T17:08:59.311Z,25.00
2018-08-31T17:11:30.018Z,25.20
2018-08-31T17:14:00.740Z,25.10
2018-08-31T17:16:32.223Z,25.10
2018-08-31T17:19:04.658Z,25.10
2018-08-31T17:21:35.495Z,25.10
2018-08-31T17:24:06.873Z,25.10
2018-08-31T17:26:45.846Z,24.90
2018-08-31T17:29:21.923Z,24.70
2018-08-31T17:31:58.472Z,24.70
2018-08-31T17:34:36.319Z,24.70
2018-08-31T17:37:13.009Z,24.60
2018-08-31T17:39:44.860Z,24.50
2018-08-31T17:42:15.839Z,24.40
2018-08-31T17:44:46.734Z,24.30
2018-08-31T17:47:17.521Z,24.10
2018-08-31T17:49:48.812Z,24.10
2018-08-31T17:52:21.526Z,24.10
2018-08-31T17:54:53.440Z,24.00
2018-08-31T17:57:24.749Z,23.80
2018-08-31T17:59:56.146Z,23.70
2018-08-31T18:02:27.741Z,23.70
2018-08-31T18:04:59.281Z,23.70
2018-08-31T18:07:31.058Z,23.70
2018-08-31T18:10:03.312Z,23.60
2018-08-31T18:12:35.699Z,23.60
2018-08-31T18:15:07.686Z,23.50
2018-08-31T18:17:39.661Z,23.40
2018-08-31T18:20:12.125Z,23.30
2018-08-31T18:22:44.188Z,23.20
2018-08-31T18:25:16.765Z,23.10
2018-08-31T18:27:48.581Z,23.00
2018-08-31T18:30:21.181Z,23.00
2018-08-31T18:32:53.352Z,23.10
2018-08-31T18:35:25.348Z,23.10
2018-08-31T18:37:57.923Z,23.00
2018-08-31T18:40:30.155Z,23.00
2018-08-31T18:43:01.970Z,22.80
2018-08-31T18:45:33.928Z,22.80
2018-08-31T18:48:06.889Z,22.70
2018-08-31T18:50:39.114Z,22.70
2018-08-31T18:53:11.308Z,22.70
2018-08-31T18:55:43.823Z,22.70
2018-08-31T18:58:15.886Z,22.70
2018-08-31T19:00:47.706Z,22.80
2018-08-31T19:03:20.329Z,22.90
2018-08-31T19:05:52.095Z,22.80
2018-08-31T19:08:25.151Z,22.90
2018-08-31T19:10:59.272Z,22.90
2018-08-31T19:13:32.397Z,22.70
2018-08-31T19:16:04.369Z,22.70
2018-08-31T19:18:37.205Z,22.70
2018-08-31T19:21:09.355Z,22.80
2018-08-31T19:23:42.183Z,22.60
2018-08-31T19:26:14.791Z,22.60
2018-08-31T19:28:48.821Z,22.60
2018-08-31T19:31:22.158Z,22.60
2018-08-31T19:33:54.999Z,22.50
2018-08-31T19:36:30.080Z,22.50
2018-08-31T19:39:05.383Z,22.50
2018-08-31T19:41:40.143Z,22.40
2018-08-31T19:44:14.031Z,22.40
2018-08-31T19:46:48.180Z,22.30
2018-08-31T19:49:22.223Z,22.30
2018-08-31T19:51:57.378Z,22.30
2018-08-31T19:54:29.940Z,22.30
2018-08-31T19:57:03.528Z,22.30
2018-08-31T19:59:39.434Z,22.20
2018-08-31T20:02:12.463Z,22.20
2018-08-31T20:04:45.261Z,22.10
2018-08-31T20:07:18.610Z,22.10
2018-08-31T20:09:50.430Z,22.10
2018-08-31T20:12:22.603Z,22.10
2018-08-31T20:14:54.852Z,22.10
2018-08-31T20:17:26.789Z,22.00
2018-08-31T20:19:59.166Z,22.00
2018-08-31T20:22:32.248Z,22.00
2018-08-31T20:25:06.522Z,22.00
2018-08-31T20:27:38.401Z,22.20
2018-08-31T20:30:11.590Z,22.10
2018-08-31T20:32:43.416Z,22.10
2018-08-31T20:35:15.374Z,22.10
2018-08-31T20:37:47.470Z,22.10
2018-08-31T20:40:19.476Z,22.10
2018-08-31T20:42:51.117Z,22.10
2018-08-31T20:45:23.169Z,22.10
2018-08-31T20:47:55.409Z,22.10
2018-08-31T20:50:28.496Z,22.20
2018-08-31T20:53:03.123Z,22.00
2018-08-31T20:55:35.541Z,22.10
2018-08-31T20:58:08.884Z,22.10
2018-08-31T21:00:40.855Z,22.20
2018-08-31T21:03:13.868Z,22.20
2018-08-31T21:05:46.284Z,22.20
2018-08-31T21:08:19.037Z,22.20
2018-08-31T21:10:51.378Z,22.20
2018-08-31T21:13:24.701Z,22.10
2018-08-31T21:15:56.785Z,22.10
2018-08-31T21:18:28.471Z,22.00
2018-08-31T21:21:01.030Z,21.90
2018-08-31T21:23:33.063Z,21.80
2018-08-31T21:26:04.691Z,21.70
2018-08-31T21:28:36.815Z,21.60
2018-08-31T21:31:08.571Z,21.70
2018-08-31T21:33:40.096Z,21.80
2018-08-31T21:36:10.981Z,21.90
2018-08-31T21:38:41.772Z,21.90
2018-08-31T21:41:12.598Z,22.00
2018-08-31T21:43:43.730Z,21.90
2018-08-31T21:46:14.698Z,21.70
2018-08-31T21:48:45.422Z,21.60
2018-08-31T21:51:16.369Z,21.50
2018-08-31T21:53:48.224Z,21.60
2018-08-31T21:56:19.125Z,21.60
2018-08-31T21:58:51.020Z,21.70
2018-08-31T22:01:26.729Z,21.60
2018-08-31T22:03:57.471Z,21.70
2018-08-31T22:06:28.170Z,21.60
2018-08-31T22:08:58.966Z,21.60
2018-08-31T22:11:29.769Z,21.50
2018-08-31T22:14:00.762Z,21.50
2018-08-31T22:16:31.878Z,21.50
2018-08-31T22:19:03.460Z,21.50
2018-08-31T22:21:38.606Z,21.60
2018-08-31T22:24:09.011Z,21.50
2018-08-31T22:26:40.311Z,21.50
2018-08-31T22:29:11.031Z,21.40
2018-08-31T22:31:42.002Z,21.40
2018-08-31T22:34:13.342Z,21.30
2018-08-31T22:36:44.303Z,21.20
2018-08-31T22:39:15.203Z,21.10
2018-08-31T22:41:46.137Z,21.00
2018-08-31T22:44:16.744Z,21.00
2018-08-31T22:46:47.433Z,21.00
2018-08-31T22:49:18.096Z,21.10
2018-08-31T22:51:49.075Z,21.10
2018-08-31T22:54:19.735Z,21.10
2018-08-31T22:56:50.435Z,21.20
2018-08-31T22:59:21.037Z,21.20
2018-08-31T23:01:51.527Z,21.20
2018-08-31T23:04:23.727Z,21.10
2018-08-31T23:06:54.353Z,21.10
2018-08-31T23:09:26.088Z,21.00
2018-08-31T23:11:56.635Z,21.00
2018-08-31T23:14:27.196Z,21.00
2018-08-31T23:16:57.782Z,21.00
2018-08-31T23:19:28.613Z,21.00
2018-08-31T23:21:59.590Z,21.00
2018-08-31T23:24:30.254Z,21.00
2018-08-31T23:27:00.838Z,21.00
2018-08-31T23:29:31.971Z,20.90
2018-08-31T23:32:03.202Z,20.80
2018-08-31T23:34:33.859Z,20.80
2018-08-31T23:37:04.377Z,20.80
2018-08-31T23:39:34.844Z,20.80
2018-08-31T23:42:05.290Z,20.70
2018-08-31T23:44:35.740Z,20.70
2018-08-31T23:47:06.929Z,20.60
2018-08-31T23:49:37.593Z,20.60
2018-08-31T23:52:08.249Z,20.60
2018-08-31T23:54:38.747Z,20.70
2018-08-31T23:57:10.672Z,20.70
2018-08-31T23:59:41.323Z,20.70
